Time;durP1;ratioP1;P1;durP2;ratioP2;P2;SDS_P1;SDS_P2;PMS_P1;PMS_P2;Temp;Humidity;BMP_temperature;BMP_pressure;BME280_temperature;BME280_humidity;BME280_pressure;Samples;Min_cycle;Max_cycle;Signal;HPM_P1;HPM_P2
2023/01/23 00:01:38;;;;;;;26.65;15.45;;;8.20;99.90;;;;;;5013113;28;20404;-74
2023/01/23 00:04:09;;;;;;;25.05;15.82;;;8.20;99.90;;;;;;4996946;28;20500;-70
2023/01/23 00:06:36;;;;;;;26.90;16.42;;;8.20;99.90;;;;;;4994260;28;20038;-77
2023/01/23 00:09:03;;;;;;;25.70;15.88;;;8.30;99.90;;;;;;5010718;28;20057;-74
2023/01/23 00:11:33;;;;;;;29.58;20.70;;;8.50;99.90;;;;;;5022262;28;20092;-69
2023/01/23 00:14:02;;;;;;;41.05;27.70;;;8.70;99.90;;;;;;4995943;28;20050;-73
2023/01/23 00:16:34;;;;;;;24.02;16.60;;;8.90;99.90;;;;;;5003301;28;20057;-72
2023/01/23 00:19:03;;;;;;;23.75;14.27;;;9.00;99.90;;;;;;4993022;28;20128;-73
2023/01/23 00:21:30;;;;;;;21.67;13.75;;;9.10;99.90;;;;;;5000391;28;20568;-71
2023/01/23 00:24:00;;;;;;;22.65;13.95;;;9.20;99.90;;;;;;4989760;28;20069;-72
2023/01/23 00:26:36;;;;;;;24.98;14.02;;;9.00;99.90;;;;;;5012379;28;20050;-72
2023/01/23 00:29:04;;;;;;;109.47;57.88;;;8.90;99.90;;;;;;4980703;28;20053;-70
2023/01/23 00:31:37;;;;;;;94.90;54.55;;;9.10;99.90;;;;;;4997091;28;20061;-73
2023/01/23 00:34:07;;;;;;;43.05;27.80;;;9.20;99.90;;;;;;5006875;28;20036;-71
2023/01/23 00:36:42;;;;;;;29.80;18.25;;;9.20;99.90;;;;;;4986494;28;20050;-71
2023/01/23 00:39:16;;;;;;;27.95;15.85;;;9.20;99.90;;;;;;4993212;28;20073;-73
2023/01/23 00:41:45;;;;;;;20.40;14.10;;;9.20;99.90;;;;;;5007495;28;20182;-74
2023/01/23 00:44:12;;;;;;;25.65;13.05;;;9.20;99.90;;;;;;5004936;28;20543;-74
2023/01/23 00:46:40;;;;;;;18.77;12.48;;;9.30;99.90;;;;;;5008455;28;20030;-73
2023/01/23 00:49:16;;;;;;;19.77;12.20;;;9.30;99.90;;;;;;5004494;28;20504;-73
2023/01/23 00:51:46;;;;;;;21.05;12.50;;;9.30;99.90;;;;;;4992863;28;20046;-73
2023/01/23 00:54:13;;;;;;;21.48;12.50;;;9.20;99.90;;;;;;4987315;28;20039;-71
2023/01/23 00:56:41;;;;;;;17.42;11.95;;;9.10;99.90;;;;;;4992462;28;20050;-73
2023/01/23 00:59:11;;;;;;;19.52;12.65;;;9.10;99.90;;;;;;5007467;28;20425;-72
2023/01/23 01:01:43;;;;;;;16.05;11.15;;;9.10;99.90;;;;;;4992033;28;20137;-73
2023/01/23 01:04:11;;;;;;;19.23;11.75;;;9.20;99.90;;;;;;4992071;28;20073;-74
2023/01/23 01:06:39;;;;;;;13.93;10.15;;;9.10;99.90;;;;;;5011796;28;20448;-74
2023/01/23 01:09:19;;;;;;;18.23;11.85;;;9.30;99.90;;;;;;4995307;28;20046;-72
2023/01/23 01:11:49;;;;;;;15.07;11.07;;;9.30;99.90;;;;;;4993360;28;20047;-74
2023/01/23 01:14:16;;;;;;;20.92;13.23;;;9.30;99.90;;;;;;5011891;28;20389;-72
2023/01/23 01:16:45;;;;;;;18.60;11.57;;;9.20;99.90;;;;;;4994821;28;20053;-73
2023/01/23 01:19:14;;;;;;;14.40;9.77;;;9.30;99.90;;;;;;5012242;28;20038;-72
2023/01/23 01:21:42;;;;;;;17.27;11.18;;;9.40;99.90;;;;;;4992085;28;20077;-74
2023/01/23 01:24:09;;;;;;;14.27;9.30;;;9.40;99.90;;;;;;4992160;28;20042;-71
2023/01/23 01:26:39;;;;;;;16.75;10.43;;;9.50;99.90;;;;;;4987976;28;20061;-74
2023/01/23 01:29:07;;;;;;;18.60;9.65;;;9.40;99.90;;;;;;5008101;28;20050;-70
2023/01/23 01:31:34;;;;;;;16.95;8.95;;;9.50;99.90;;;;;;5007401;28;20058;-72
2023/01/23 01:34:02;;;;;;;12.90;8.43;;;9.60;99.90;;;;;;5012174;28;20044;-73
2023/01/23 01:36:32;;;;;;;13.00;7.45;;;9.70;99.90;;;;;;5009443;28;20074;-69
2023/01/23 01:39:03;;;;;;;14.18;7.50;;;9.60;99.90;;;;;;4990622;28;20050;-69
2023/01/23 01:41:34;;;;;;;16.55;7.53;;;9.50;99.90;;;;;;4992720;28;20049;-71
2023/01/23 01:44:01;;;;;;;9.55;6.43;;;9.50;99.90;;;;;;4991371;28;20046;-68
2023/01/23 01:46:32;;;;;;;11.23;6.38;;;9.50;99.90;;;;;;5007987;28;20054;-75
2023/01/23 01:49:16;;;;;;;11.90;6.03;;;9.60;99.90;;;;;;4999233;28;20516;-68
2023/01/23 01:52:07;;;;;;;15.90;5.75;;;9.70;99.90;;;;;;5009028;28;20402;-72
2023/01/23 01:54:46;;;;;;;9.05;4.75;;;9.70;99.90;;;;;;4996478;28;20393;-72
2023/01/23 01:57:30;;;;;;;7.00;5.05;;;9.70;99.90;;;;;;4985482;28;20050;-72
2023/01/23 02:00:16;;;;;;;;;;;9.90;99.90;;;;;;5016090;28;20053;-73
2023/01/23 02:02:54;;;;;;;9.30;4.97;;;9.90;99.90;;;;;;4990936;28;20530;-69
2023/01/23 02:05:28;;;;;;;12.00;6.05;;;10.00;99.90;;;;;;4988410;28;20211;-72
2023/01/23 02:08:18;;;;;;;13.77;6.28;;;10.00;99.90;;;;;;5004447;28;20045;-69
2023/01/23 02:10:48;;;;;;;8.43;5.82;;;9.90;99.90;;;;;;5011972;28;20634;-70
2023/01/23 02:13:21;;;;;;;7.40;4.60;;;9.90;99.90;;;;;;4990224;28;20045;-71
2023/01/23 02:15:49;;;;;;;9.07;4.63;;;10.00;99.90;;;;;;4988566;28;20054;-69
2023/01/23 02:18:26;;;;;;;7.03;4.25;;;9.90;99.90;;;;;;5008967;28;20049;-70
2023/01/23 02:21:02;;;;;;;11.25;5.13;;;9.90;99.90;;;;;;4977698;28;20052;-70
2023/01/23 02:23:53;;;;;;;8.95;4.60;;;9.90;99.90;;;;;;4989795;28;20045;-74
2023/01/23 02:26:26;;;;;;;6.43;4.38;;;10.00;99.90;;;;;;4993721;28;20552;-72
2023/01/23 02:28:54;;;;;;;6.78;4.63;;;9.90;99.90;;;;;;4990889;28;20054;-72
2023/01/23 02:31:22;;;;;;;8.50;4.40;;;9.90;99.90;;;;;;4986639;28;20065;-72
2023/01/23 02:33:55;;;;;;;8.25;4.50;;;9.90;99.90;;;;;;5024291;28;20041;-73
2023/01/23 02:36:28;;;;;;;9.18;5.05;;;9.90;99.90;;;;;;5009683;28;20045;-73
2023/01/23 02:39:00;;;;;;;7.82;4.63;;;9.80;99.90;;;;;;4979628;28;20050;-72
2023/01/23 02:41:31;;;;;;;10.00;4.90;;;9.80;99.90;;;;;;5003994;28;20124;-74
2023/01/23 02:44:15;;;;;;;8.82;4.55;;;9.80;99.90;;;;;;5010875;28;20042;-72
2023/01/23 02:46:52;;;;;;;8.05;4.53;;;9.80;99.90;;;;;;5008925;28;20037;-74
2023/01/23 02:49:23;;;;;;;5.43;4.15;;;9.80;99.90;;;;;;5004580;28;20065;-69
2023/01/23 02:51:52;;;;;;;10.77;4.68;;;9.70;99.90;;;;;;4994202;28;20054;-74
2023/01/23 02:54:21;;;;;;;69.93;41.13;;;9.70;99.90;;;;;;5004607;28;20065;-78
2023/01/23 02:56:49;;;;;;;35.88;24.58;;;9.80;99.90;;;;;;4992279;28;20054;-74
2023/01/23 03:02:04;;;;;;;86.45;45.20;;;10.30;99.90;;;;;;5010892;28;20108;-80
2023/01/23 03:04:40;;;;;;;13.10;8.65;;;10.40;99.90;;;;;;4993661;28;20038;-75
2023/01/23 03:07:10;;;;;;;11.30;5.55;;;10.00;99.90;;;;;;4977701;28;20065;-74
2023/01/23 03:09:38;;;;;;;10.55;5.35;;;9.90;99.90;;;;;;4995582;28;20049;-77
2023/01/23 03:12:06;;;;;;;12.95;5.18;;;9.80;99.90;;;;;;5008453;28;20713;-76
2023/01/23 03:14:33;;;;;;;9.15;5.38;;;9.80;99.90;;;;;;4982152;28;20038;-72
2023/01/23 03:17:01;;;;;;;8.82;4.80;;;9.70;99.90;;;;;;4999295;28;20133;-76
2023/01/23 03:19:30;;;;;;;7.70;4.80;;;9.70;99.90;;;;;;4990018;28;20045;-73
2023/01/23 03:22:00;;;;;;;8.70;5.45;;;9.60;99.90;;;;;;5002816;28;20449;-74
2023/01/23 03:24:32;;;;;;;9.10;4.63;;;9.70;99.90;;;;;;4983252;28;20437;-74
2023/01/23 03:26:59;;;;;;;9.13;4.65;;;9.70;99.90;;;;;;4991520;28;20389;-75
2023/01/23 03:32:13;;;;;;;7.55;4.55;;;9.70;99.90;;;;;;4992501;28;20038;-74
2023/01/23 03:34:41;;;;;;;11.60;5.20;;;9.60;99.90;;;;;;4988940;28;20034;-74
2023/01/23 03:37:11;;;;;;;9.48;4.88;;;9.70;99.90;;;;;;5005864;28;20054;-72
2023/01/23 03:42:34;;;;;;;10.02;5.13;;;9.80;99.90;;;;;;5008304;28;20049;-68
2023/01/23 03:45:07;;;;;;;8.70;4.75;;;9.80;99.90;;;;;;4993453;28;20038;-68
2023/01/23 03:47:42;;;;;;;6.53;4.50;;;9.80;99.90;;;;;;4987769;28;20057;-75
2023/01/23 03:50:09;;;;;;;8.55;4.82;;;9.70;99.90;;;;;;4987410;28;20113;-72
2023/01/23 03:52:37;;;;;;;9.88;4.53;;;9.70;99.90;;;;;;5001647;28;20045;-73
2023/01/23 03:55:04;;;;;;;8.88;4.68;;;9.80;99.90;;;;;;4993184;28;20038;-75
2023/01/23 03:57:38;;;;;;;9.90;4.85;;;9.80;99.90;;;;;;5008583;28;20050;-77
2023/01/23 04:00:09;;;;;;;6.88;4.60;;;9.70;99.90;;;;;;4989526;28;20105;-77
2023/01/23 04:02:36;;;;;;;7.85;4.47;;;9.80;99.90;;;;;;4993472;28;20046;-77
2023/01/23 04:05:04;;;;;;;6.32;4.10;;;9.80;99.90;;;;;;5014389;28;20054;-75
2023/01/23 04:07:31;;;;;;;7.82;5.30;;;9.90;99.90;;;;;;5001030;28;20120;-76
2023/01/23 04:09:58;;;;;;;7.63;4.20;;;9.90;99.90;;;;;;5009714;28;20405;-75
2023/01/23 04:12:26;;;;;;;7.50;4.60;;;10.00;99.90;;;;;;5011206;28;20042;-75
2023/01/23 04:14:53;;;;;;;5.20;4.20;;;9.90;99.90;;;;;;4996683;28;20484;-76
2023/01/23 04:17:20;;;;;;;8.48;5.07;;;10.00;99.90;;;;;;5012305;28;20503;-79
2023/01/23 04:19:47;;;;;;;9.52;5.45;;;10.10;99.90;;;;;;5018529;28;20136;-79
2023/01/23 04:22:14;;;;;;;6.13;4.15;;;10.10;99.90;;;;;;5011950;28;20229;-82
2023/01/23 04:24:42;;;;;;;5.75;4.00;;;10.10;99.90;;;;;;5014627;28;20046;-80
2023/01/23 04:27:09;;;;;;;6.70;4.32;;;10.10;99.90;;;;;;5013730;28;20046;-78
2023/01/23 04:29:40;;;;;;;5.93;4.15;;;10.20;99.90;;;;;;4997655;28;20050;-81
2023/01/23 04:32:09;;;;;;;5.95;4.55;;;10.10;99.90;;;;;;5013880;28;20439;-72
2023/01/23 04:34:36;;;;;;;8.15;4.50;;;10.20;99.90;;;;;;4993725;28;20103;-79
2023/01/23 04:37:04;;;;;;;7.90;4.25;;;10.10;99.90;;;;;;5013540;28;20049;-83
2023/01/23 04:39:32;;;;;;;9.43;4.75;;;10.00;99.90;;;;;;5005269;28;20569;-76
2023/01/23 04:41:59;;;;;;;9.05;5.40;;;9.90;99.90;;;;;;5001478;28;20054;-79
2023/01/23 04:44:26;;;;;;;10.90;4.57;;;9.90;99.90;;;;;;5012402;28;20050;-81
2023/01/23 04:46:54;;;;;;;12.82;4.70;;;9.90;99.90;;;;;;5006260;28;20038;-77
2023/01/23 04:49:22;;;;;;;10.55;4.75;;;9.90;99.90;;;;;;4999487;28;20033;-80
2023/01/23 04:51:53;;;;;;;6.38;4.70;;;9.90;99.90;;;;;;5005286;28;20042;-70
2023/01/23 04:54:21;;;;;;;7.07;4.57;;;10.00;99.90;;;;;;4989795;28;20097;-79
2023/01/23 04:56:48;;;;;;;9.10;5.00;;;10.00;99.90;;;;;;4991812;28;20561;-77
2023/01/23 04:59:15;;;;;;;7.65;4.70;;;9.90;99.90;;;;;;5007870;28;20054;-78
2023/01/23 05:01:43;;;;;;;10.75;5.15;;;10.00;99.90;;;;;;4994194;28;20192;-78
2023/01/23 05:04:16;;;;;;;7.82;4.70;;;9.90;99.90;;;;;;5008920;28;20446;-74
2023/01/23 05:06:49;;;;;;;6.82;4.35;;;10.00;99.90;;;;;;5006871;28;20044;-73
2023/01/23 05:09:17;;;;;;;9.75;4.57;;;10.10;99.90;;;;;;4996145;28;20073;-74
2023/01/23 05:11:44;;;;;;;7.47;4.55;;;10.20;99.90;;;;;;5009443;28;20064;-81
2023/01/23 05:14:11;;;;;;;6.53;5.32;;;10.10;99.90;;;;;;5001834;28;20038;-81
2023/01/23 05:16:42;;;;;;;6.60;4.50;;;10.10;99.90;;;;;;5000562;28;20037;-81
2023/01/23 05:19:13;;;;;;;8.68;5.03;;;10.10;99.90;;;;;;4992082;28;20096;-77
2023/01/23 05:21:41;;;;;;;6.40;4.28;;;10.20;99.90;;;;;;5009068;28;20053;-72
2023/01/23 05:24:11;;;;;;;7.43;4.10;;;10.20;99.90;;;;;;4995030;28;20402;-73
2023/01/23 05:26:38;;;;;;;7.88;4.30;;;10.20;99.90;;;;;;4994873;28;20092;-71
2023/01/23 05:29:06;;;;;;;26.35;13.82;;;10.20;99.90;;;;;;4977997;28;20046;-75
2023/01/23 05:31:33;;;;;;;12.40;8.05;;;10.30;99.90;;;;;;5008307;28;20061;-74
2023/01/23 05:34:00;;;;;;;6.82;4.80;;;10.30;99.90;;;;;;5015608;28;20485;-81
2023/01/23 05:36:33;;;;;;;14.18;9.75;;;10.30;99.90;;;;;;5018171;28;20073;-72
2023/01/23 05:39:03;;;;;;;20.88;13.65;;;10.40;99.90;;;;;;5001613;28;20482;-77
2023/01/23 05:41:31;;;;;;;8.05;6.20;;;10.50;99.90;;;;;;4991926;28;20050;-77
2023/01/23 05:43:59;;;;;;;12.55;7.35;;;10.70;99.90;;;;;;4989309;28;20100;-73
2023/01/23 05:46:26;;;;;;;6.30;4.43;;;10.70;99.90;;;;;;4989454;28;20054;-75
2023/01/23 05:48:53;;;;;;;6.00;4.32;;;10.60;99.90;;;;;;5007542;28;20034;-76
2023/01/23 05:51:22;;;;;;;6.78;4.20;;;10.40;99.90;;;;;;5013108;28;20428;-72
2023/01/23 05:53:50;;;;;;;9.05;4.72;;;10.30;99.90;;;;;;5011287;28;20047;-78
2023/01/23 05:56:17;;;;;;;6.15;4.70;;;10.20;99.90;;;;;;5023520;28;20044;-75
2023/01/23 05:58:47;;;;;;;8.27;4.40;;;10.20;99.90;;;;;;4995780;28;20272;-69
2023/01/23 06:01:18;;;;;;;8.68;4.30;;;10.20;99.90;;;;;;4996775;28;20312;-69
2023/01/23 06:03:48;;;;;;;8.32;4.22;;;10.20;99.90;;;;;;5002105;28;20378;-75
2023/01/23 06:06:15;;;;;;;6.82;4.22;;;10.30;99.90;;;;;;5005321;28;20113;-80
2023/01/23 06:08:42;;;;;;;7.20;4.30;;;10.20;99.90;;;;;;5002544;28;20041;-78
2023/01/23 06:11:10;;;;;;;8.85;4.30;;;10.20;99.90;;;;;;5002360;28;20465;-82
2023/01/23 06:13:37;;;;;;;6.30;4.07;;;10.20;99.90;;;;;;5016923;28;20042;-77
2023/01/23 06:16:04;;;;;;;7.15;4.70;;;10.20;99.90;;;;;;5001626;28;20073;-81
2023/01/23 06:18:52;;;;;;;6.32;4.07;;;10.30;99.90;;;;;;5001126;28;20074;-80
2023/01/23 06:21:25;;;;;;;8.93;4.38;;;10.30;99.90;;;;;;5002350;28;20133;-80
2023/01/23 06:23:52;;;;;;;7.90;4.32;;;10.30;99.90;;;;;;5008749;28;20042;-78
2023/01/23 06:26:23;;;;;;;8.93;4.43;;;10.30;99.90;;;;;;4997369;28;20061;-74
2023/01/23 06:28:50;;;;;;;6.80;4.15;;;10.30;99.90;;;;;;5002689;28;20104;-78
2023/01/23 06:31:18;;;;;;;5.90;3.90;;;10.30;99.90;;;;;;5015926;28;20104;-73
2023/01/23 06:33:50;;;;;;;42.92;24.83;;;10.40;99.90;;;;;;5010701;28;20046;-70
2023/01/23 06:36:30;;;;;;;13.25;7.43;;;10.60;99.90;;;;;;4996892;28;20072;-74
2023/01/23 06:39:10;;;;;;;16.55;11.40;;;10.50;99.90;;;;;;5010854;28;20100;-70
2023/01/23 06:41:37;;;;;;;7.40;4.78;;;10.50;99.90;;;;;;4991533;28;20057;-71
2023/01/23 06:44:06;;;;;;;4.88;3.70;;;10.40;99.90;;;;;;4995288;28;20061;-76
2023/01/23 06:46:34;;;;;;;5.65;4.00;;;10.40;99.90;;;;;;5014530;28;20042;-81
2023/01/23 06:49:01;;;;;;;5.65;4.40;;;10.40;99.90;;;;;;5014030;28;20064;-81
2023/01/23 06:51:34;;;;;;;8.80;4.50;;;10.30;99.90;;;;;;5011224;28;20131;-74
2023/01/23 06:54:02;;;;;;;10.10;4.55;;;10.20;99.90;;;;;;4990074;28;20051;-74
2023/01/23 06:56:50;;;;;;;8.90;4.65;;;10.20;99.90;;;;;;4993918;28;20042;-72
2023/01/23 06:59:28;;;;;;;5.30;3.95;;;10.20;99.90;;;;;;4994597;28;20054;-79
2023/01/23 07:01:55;;;;;;;5.28;3.78;;;10.20;99.90;;;;;;5010518;28;20038;-79
2023/01/23 07:04:23;;;;;;;6.68;3.85;;;10.20;99.90;;;;;;5006689;28;20450;-79
2023/01/23 07:06:57;;;;;;;7.50;4.30;;;10.20;99.90;;;;;;5004473;28;20069;-78
2023/01/23 07:09:24;;;;;;;6.75;4.07;;;10.20;99.90;;;;;;4992195;28;20402;-79
2023/01/23 07:11:57;;;;;;;6.78;4.47;;;10.10;99.90;;;;;;5016877;28;20444;-78
2023/01/23 07:14:28;;;;;;;6.82;4.28;;;10.20;99.90;;;;;;4981762;28;20038;-78
2023/01/23 07:16:56;;;;;;;4.75;4.00;;;10.10;99.90;;;;;;4993534;28;20085;-79
2023/01/23 07:19:24;;;;;;;7.93;4.70;;;10.20;99.90;;;;;;5016336;28;20048;-79
2023/01/23 07:21:52;;;;;;;6.57;4.38;;;10.10;99.90;;;;;;5003025;28;20050;-80
2023/01/23 07:24:19;;;;;;;6.63;4.60;;;10.10;99.90;;;;;;4998181;28;20039;-79
2023/01/23 07:26:46;;;;;;;8.98;4.75;;;10.10;99.90;;;;;;5011576;28;20057;-78
2023/01/23 07:29:14;;;;;;;7.63;4.93;;;10.10;99.90;;;;;;5017592;28;20041;-78
2023/01/23 07:31:41;;;;;;;6.43;4.30;;;10.10;99.90;;;;;;5014738;28;20059;-79
2023/01/23 07:34:14;;;;;;;6.70;4.78;;;10.20;99.90;;;;;;5016565;28;20382;-75
2023/01/23 07:36:55;;;;;;;6.55;4.30;;;10.20;99.90;;;;;;5000421;28;20487;-75
2023/01/23 07:39:23;;;;;;;7.35;4.53;;;10.10;99.90;;;;;;5011126;28;20042;-79
2023/01/23 07:41:50;;;;;;;6.25;4.32;;;10.20;99.90;;;;;;5013994;28;20383;-79
2023/01/23 07:44:29;;;;;;;6.05;4.60;;;10.20;99.90;;;;;;4994290;28;20056;-81
2023/01/23 07:46:56;;;;;;;9.25;4.80;;;10.20;99.90;;;;;;5018377;28;20057;-79
2023/01/23 07:49:30;;;;;;;7.32;4.60;;;10.20;99.90;;;;;;5016387;28;20050;-80
2023/01/23 07:51:59;;;;;;;6.28;4.88;;;10.20;99.90;;;;;;4997883;28;20042;-73
2023/01/23 07:54:27;;;;;;;7.65;4.82;;;10.20;99.90;;;;;;4997076;28;20057;-79
2023/01/23 07:56:57;;;;;;;7.93;5.22;;;10.30;99.90;;;;;;4996081;28;20052;-75
2023/01/23 07:59:27;;;;;;;7.22;4.50;;;10.30;99.90;;;;;;4996074;28;20421;-79
2023/01/23 08:01:58;;;;;;;5.68;4.30;;;10.20;99.90;;;;;;4999918;28;20113;-81
2023/01/23 08:04:25;;;;;;;5.68;4.80;;;10.20;99.90;;;;;;4996592;28;20138;-77
2023/01/23 08:06:53;;;;;;;9.93;5.90;;;10.30;99.90;;;;;;5003583;28;20065;-80
2023/01/23 08:09:21;;;;;;;7.18;4.95;;;10.30;99.90;;;;;;5035043;28;20046;-81
2023/01/23 08:11:51;;;;;;;7.07;5.38;;;10.20;99.90;;;;;;5016304;28;20050;-78
2023/01/23 08:14:19;;;;;;;10.88;5.45;;;10.20;99.90;;;;;;5016818;28;20050;-80
2023/01/23 08:16:51;;;;;;;8.63;4.45;;;10.30;99.90;;;;;;4989570;28;20057;-82
2023/01/23 08:19:24;;;;;;;7.57;4.25;;;10.30;99.90;;;;;;4985013;28;20054;-75
2023/01/23 08:21:57;;;;;;;5.70;4.45;;;10.40;99.90;;;;;;4997712;28;20136;-81
2023/01/23 08:24:25;;;;;;;6.70;4.63;;;10.40;99.90;;;;;;5022918;28;20050;-81
2023/01/23 08:27:04;;;;;;;8.00;5.00;;;10.50;99.90;;;;;;5013978;28;20077;-80
2023/01/23 08:29:32;;;;;;;12.48;5.70;;;10.50;99.90;;;;;;4994823;28;20054;-71
2023/01/23 08:31:59;;;;;;;7.65;5.05;;;10.50;99.90;;;;;;4996829;28;20050;-79
2023/01/23 08:34:36;;;;;;;7.82;4.95;;;10.50;99.90;;;;;;4998446;28;20057;-74
2023/01/23 08:37:07;;;;;;;6.95;4.90;;;10.60;99.90;;;;;;4983919;28;20214;-76
2023/01/23 08:39:35;;;;;;;7.55;5.10;;;10.60;99.90;;;;;;4986186;28;20054;-74
2023/01/23 08:42:06;;;;;;;7.30;4.82;;;10.60;99.90;;;;;;4995454;28;20112;-76
2023/01/23 08:44:42;;;;;;;7.15;5.00;;;10.60;99.90;;;;;;5011700;28;20050;-72
2023/01/23 08:47:12;;;;;;;9.63;5.18;;;10.60;99.90;;;;;;4996827;28;20419;-73
2023/01/23 08:49:42;;;;;;;9.23;5.72;;;10.60;99.90;;;;;;4993126;28;20042;-81
2023/01/23 08:52:09;;;;;;;8.15;5.20;;;10.60;99.90;;;;;;5005861;28;20152;-77
2023/01/23 08:54:38;;;;;;;6.53;4.85;;;10.60;99.90;;;;;;5013502;28;20053;-74
2023/01/23 08:57:11;;;;;;;4.88;3.65;;;10.60;99.90;;;;;;5004074;28;20042;-73
2023/01/23 08:59:43;;;;;;;8.75;5.63;;;10.60;99.90;;;;;;5010772;28;20072;-73
2023/01/23 09:02:13;;;;;;;5.18;3.70;;;10.60;99.90;;;;;;4988051;28;20393;-76
2023/01/23 09:04:54;;;;;;;5.40;3.72;;;10.60;99.90;;;;;;4998717;28;20052;-75
2023/01/23 09:07:29;;;;;;;4.00;3.35;;;10.60;99.90;;;;;;4992604;28;20050;-78
2023/01/23 09:09:56;;;;;;;4.68;3.80;;;10.60;99.90;;;;;;5012364;28;20185;-81
2023/01/23 09:12:23;;;;;;;5.38;3.60;;;10.60;99.90;;;;;;5014205;28;20064;-74
2023/01/23 09:14:50;;;;;;;5.32;3.53;;;10.60;99.90;;;;;;5013109;28;20502;-80
2023/01/23 09:17:18;;;;;;;8.35;4.05;;;10.60;99.90;;;;;;5013096;28;20485;-77
2023/01/23 09:19:48;;;;;;;9.85;3.60;;;10.50;99.90;;;;;;4994946;28;20397;-80
2023/01/23 09:22:16;;;;;;;4.80;3.38;;;10.50;99.90;;;;;;5013857;28;20038;-78
2023/01/23 09:24:45;;;;;;;8.23;3.55;;;10.50;99.90;;;;;;5003308;28;20410;-73
2023/01/23 09:27:13;;;;;;;13.13;4.28;;;10.50;99.90;;;;;;5007816;28;20045;-80
2023/01/23 09:29:49;;;;;;;8.40;3.70;;;10.50;99.90;;;;;;5008396;28;20060;-78
2023/01/23 09:32:23;;;;;;;14.90;4.68;;;10.50;99.90;;;;;;4993225;28;20367;-72
2023/01/23 09:34:54;;;;;;;9.07;3.88;;;10.50;99.90;;;;;;5014521;28;20048;-73
2023/01/23 09:37:21;;;;;;;5.47;3.60;;;10.60;99.90;;;;;;5018461;28;20129;-80
2023/01/23 09:39:48;;;;;;;5.75;3.67;;;10.60;99.90;;;;;;5016389;28;20046;-82
2023/01/23 09:42:24;;;;;;;4.45;3.38;;;10.70;99.90;;;;;;5017538;28;20049;-75
2023/01/23 09:44:59;;;;;;;5.18;3.53;;;10.80;99.90;;;;;;4996066;28;20046;-80
2023/01/23 09:47:31;;;;;;;9.30;5.15;;;10.80;99.90;;;;;;4989187;28;20054;-81
2023/01/23 09:50:20;;;;;;;5.50;3.70;;;10.80;99.90;;;;;;5016884;28;20494;-80
2023/01/23 09:52:54;;;;;;;5.25;3.70;;;10.80;99.90;;;;;;5013818;28;20052;-72
2023/01/23 09:55:47;;;;;;;9.38;3.80;;;10.80;99.90;;;;;;4994298;28;20070;-75
2023/01/23 09:58:23;;;;;;;5.90;3.83;;;10.80;99.90;;;;;;5006582;28;20057;-79
2023/01/23 10:00:50;;;;;;;8.02;3.90;;;10.80;99.90;;;;;;5000513;28;20474;-81
2023/01/23 10:03:19;;;;;;;5.70;4.00;;;10.80;99.90;;;;;;5004970;28;20077;-75
2023/01/23 10:06:05;;;;;;;11.95;4.10;;;11.00;99.90;;;;;;4999208;28;20091;-79
2023/01/23 10:08:32;;;;;;;7.50;4.13;;;10.90;99.90;;;;;;5020374;28;20042;-78
2023/01/23 10:11:16;;;;;;;5.75;4.20;;;11.00;99.90;;;;;;5011209;28;20236;-72
2023/01/23 10:14:05;;;;;;;5.47;3.92;;;10.90;99.90;;;;;;5001096;28;20048;-83
2023/01/23 10:16:46;;;;;;;6.82;4.70;;;10.90;99.90;;;;;;4994494;28;20054;-75
2023/01/23 10:19:20;;;;;;;7.95;5.15;;;11.00;99.90;;;;;;4993626;28;20042;-78
2023/01/23 10:22:14;;;;;;;9.95;4.40;;;11.20;99.90;;;;;;4989241;28;20109;-81
2023/01/23 10:24:56;;;;;;;12.85;4.47;;;11.20;99.90;;;;;;4994614;28;20100;-78
2023/01/23 10:27:37;;;;;;;24.00;5.05;;;11.50;99.90;;;;;;5002037;28;20442;-78
2023/01/23 10:30:12;;;;;;;;;;;11.40;99.90;;;;;;5012592;28;20050;-74
2023/01/23 10:32:58;;;;;;;15.23;4.50;;;11.50;99.90;;;;;;4992179;28;20302;-77
2023/01/23 10:35:38;;;;;;;10.45;4.65;;;11.50;99.90;;;;;;4998716;28;20128;-72
2023/01/23 10:38:20;;;;;;;9.05;4.88;;;11.50;99.90;;;;;;4997083;28;20061;-72
2023/01/23 10:43:36;;;;;;;6.72;3.85;;;11.50;99.90;;;;;;4998371;28;20038;-75
2023/01/23 10:46:17;;;;;;;9.73;5.00;;;11.50;99.90;;;;;;5002785;28;20127;-76
2023/01/23 10:48:50;;;;;;;5.78;3.92;;;11.60;99.90;;;;;;4990841;28;20076;-80
2023/01/23 10:51:35;;;;;;;6.15;4.00;;;11.60;99.90;;;;;;5000200;28;20058;-72
2023/01/23 10:54:13;;;;;;;5.70;4.15;;;11.70;99.90;;;;;;4998035;28;20128;-72
2023/01/23 10:57:03;;;;;;;6.85;4.05;;;11.60;99.90;;;;;;5009949;28;20505;-74
2023/01/23 11:00:00;;;;;;;5.63;4.30;;;11.70;99.90;;;;;;4998523;28;20041;-80
2023/01/23 11:02:33;;;;;;;11.88;4.78;;;11.70;99.90;;;;;;5039691;28;20061;-71
2023/01/23 11:05:21;;;;;;;6.75;4.43;;;11.60;99.90;;;;;;5003815;28;20042;-72
2023/01/23 11:07:58;;;;;;;8.75;4.70;;;11.50;99.90;;;;;;5023298;28;20046;-71
2023/01/23 11:10:26;;;;;;;8.48;4.60;;;11.50;99.90;;;;;;5000195;28;20444;-73
2023/01/23 11:12:57;;;;;;;7.07;4.47;;;11.50;99.90;;;;;;5008501;28;20054;-69
2023/01/23 11:15:27;;;;;;;;;;;11.50;99.90;;;;;;4995830;28;20042;-74
2023/01/23 11:18:00;;;;;;;6.78;4.20;;;11.60;99.90;;;;;;4998472;23;19917;-72
2023/01/23 11:20:36;;;;;;;7.28;4.20;;;11.50;99.90;;;;;;5016760;28;20165;-76
2023/01/23 11:23:12;;;;;;;12.60;4.55;;;11.50;99.90;;;;;;5033371;28;20044;-72
2023/01/23 11:26:02;;;;;;;7.05;5.45;;;11.50;99.90;;;;;;5012381;28;20049;-72
2023/01/23 11:28:33;;;;;;;11.07;4.70;;;11.50;99.90;;;;;;5037977;28;20049;-79
2023/01/23 11:31:05;;;;;;;10.70;4.30;;;11.50;99.90;;;;;;5005028;28;20081;-74
2023/01/23 11:34:01;;;;;;;6.22;4.30;;;11.60;99.90;;;;;;5012288;28;20256;-73
2023/01/23 11:36:39;;;;;;;5.97;4.43;;;11.60;99.90;;;;;;5017452;28;20045;-71
2023/01/23 11:39:18;;;;;;;5.82;4.53;;;11.60;99.90;;;;;;5028303;28;20053;-71
2023/01/23 11:41:47;;;;;;;14.52;4.78;;;11.50;99.90;;;;;;5011000;28;20043;-73
2023/01/23 11:44:21;;;;;;;5.85;4.20;;;11.60;99.90;;;;;;5017782;28;20054;-73
2023/01/23 11:47:21;;;;;;;7.15;4.30;;;11.60;99.90;;;;;;5012509;28;20454;-75
2023/01/23 11:50:24;;;;;;;5.97;4.40;;;11.50;99.90;;;;;;5015100;28;20119;-74
2023/01/23 11:52:57;;;;;;;8.52;4.25;;;11.50;99.90;;;;;;4947796;28;20057;-74
2023/01/23 11:56:02;;;;;;;8.05;4.68;;;11.60;99.90;;;;;;5031385;28;20433;-68
2023/01/23 11:58:50;;;;;;;6.45;4.90;;;11.50;99.90;;;;;;5005657;28;20137;-72
2023/01/23 12:02:01;;;;;;;6.75;4.85;;;11.60;99.90;;;;;;5027353;28;20029;-70
2023/01/23 12:05:00;;;;;;;7.57;4.50;;;11.50;99.90;;;;;;4974597;28;20081;-71
2023/01/23 12:07:31;;;;;;;7.20;4.05;;;11.50;99.90;;;;;;5014441;28;20045;-71
2023/01/23 12:10:22;;;;;;;6.20;4.40;;;11.60;99.90;;;;;;5016497;28;20038;-70
2023/01/23 12:13:28;;;;;;;5.78;4.15;;;11.50;99.90;;;;;;4999794;28;20122;-69
2023/01/23 12:16:19;;;;;;;7.28;4.07;;;11.40;99.90;;;;;;4995531;28;20137;-72
2023/01/23 12:19:13;;;;;;;6.18;4.30;;;11.50;99.90;;;;;;4992695;28;20413;-73
2023/01/23 12:22:02;;;;;;;6.65;4.47;;;11.40;99.90;;;;;;4998529;28;20121;-69
2023/01/23 12:24:44;;;;;;;6.72;4.38;;;11.30;99.90;;;;;;4984227;28;20417;-71
2023/01/23 12:27:43;;;;;;;10.25;5.72;;;11.40;99.90;;;;;;5005586;28;20057;-71
2023/01/23 12:30:44;;;;;;;9.18;4.85;;;11.40;99.90;;;;;;4958557;28;20081;-70
2023/01/23 12:33:31;;;;;;;7.25;4.43;;;11.40;99.90;;;;;;5001473;28;20653;-72
2023/01/23 12:36:17;;;;;;;6.03;4.07;;;11.40;99.90;;;;;;4985122;28;20041;-72
2023/01/23 12:39:01;;;;;;;7.85;4.50;;;11.50;99.90;;;;;;5005614;28;20046;-72
2023/01/23 12:41:36;;;;;;;8.18;4.90;;;11.50;99.90;;;;;;5008614;28;20121;-73
2023/01/23 12:44:15;;;;;;;8.38;5.25;;;11.50;99.90;;;;;;4993101;28;20077;-70
2023/01/23 12:47:00;;;;;;;8.43;5.28;;;11.50;99.90;;;;;;5009521;28;20088;-72
2023/01/23 12:50:16;;;;;;;7.57;5.40;;;11.50;99.90;;;;;;5005446;28;20080;-72
2023/01/23 12:52:56;;;;;;;10.05;5.72;;;11.50;99.90;;;;;;4996180;28;20628;-72
2023/01/23 12:55:35;;;;;;;6.90;5.50;;;11.50;99.90;;;;;;5006950;28;20508;-74
2023/01/23 12:58:11;;;;;;;9.57;5.38;;;11.50;99.90;;;;;;5005572;28;20054;-70
2023/01/23 13:00:50;;;;;;;5.93;4.55;;;11.40;99.90;;;;;;4992578;28;20046;-73
2023/01/23 13:03:21;;;;;;;9.07;5.10;;;11.50;99.90;;;;;;4992711;28;20038;-72
2023/01/23 13:06:00;;;;;;;7.97;5.38;;;11.40;99.90;;;;;;5008599;28;20377;-74
2023/01/23 13:08:35;;;;;;;6.68;4.82;;;11.50;99.90;;;;;;4980948;28;20129;-72
2023/01/23 13:11:41;;;;;;;9.23;6.03;;;11.60;99.90;;;;;;5004339;28;20061;-68
2023/01/23 13:14:42;;;;;;;11.20;6.47;;;11.50;99.90;;;;;;4998244;28;20362;-72
2023/01/23 13:17:40;;;;;;;8.35;6.10;;;11.60;99.90;;;;;;4999428;28;20058;-70
2023/01/23 13:23:27;;;;;;;9.23;6.20;;;11.60;99.90;;;;;;5001685;28;20042;-73
2023/01/23 13:26:15;;;;;;;10.60;6.40;;;11.70;99.90;;;;;;5003825;28;20046;-72
2023/01/23 13:28:42;;;;;;;8.80;6.28;;;11.60;99.90;;;;;;5005905;28;20057;-72
2023/01/23 13:31:40;;;;;;;8.45;6.65;;;11.60;99.90;;;;;;4990649;28;20042;-74
2023/01/23 13:34:16;;;;;;;9.95;6.55;;;11.60;99.90;;;;;;4998306;28;20078;-69